createdAt,value
2022-10-29T00:01:28.420Z,8.29
2022-10-29T00:04:08.338Z,8.27
2022-10-29T00:06:55.360Z,8.27
2022-10-29T00:09:35.350Z,8.29
2022-10-29T00:12:29.366Z,8.24
2022-10-29T00:15:16.355Z,8.21
2022-10-29T00:17:56.584Z,8.20
2022-10-29T00:20:50.364Z,8.16
2022-10-29T00:23:44.345Z,8.15
2022-10-29T00:26:32.358Z,8.15
2022-10-29T00:29:05.416Z,8.16
2022-10-29T00:31:52.387Z,8.13
2022-10-29T00:34:25.432Z,8.13
2022-10-29T00:37:12.355Z,8.12
2022-10-29T00:39:45.454Z,8.09
2022-10-29T00:42:32.361Z,8.10
2022-10-29T00:45:05.438Z,8.08
2022-10-29T00:47:56.489Z,8.06
2022-10-29T00:50:31.420Z,8.06
2022-10-29T00:53:25.375Z,8.05
2022-10-29T00:56:19.359Z,8.03
2022-10-29T00:59:13.387Z,8.04
2022-10-29T01:02:02.423Z,8.03
2022-10-29T01:04:44.370Z,8.03
2022-10-29T01:07:31.374Z,7.99
2022-10-29T01:10:04.428Z,7.98
2022-10-29T01:16:20.475Z,8.02
2022-10-29T01:19:19.433Z,8.03
2022-10-29T01:22:30.433Z,8.02
2022-10-29T01:25:54.396Z,8.04
2022-10-29T01:28:55.385Z,8.05
2022-10-29T01:31:55.392Z,8.07
2022-10-29T01:35:06.379Z,8.12
2022-10-29T01:38:00.386Z,8.16
2022-10-29T01:41:26.398Z,8.20
2022-10-29T01:44:19.405Z,8.21
2022-10-29T01:47:25.470Z,8.25
2022-10-29T01:50:15.410Z,8.26
2022-10-29T01:52:50.490Z,8.29
2022-10-29T01:55:41.373Z,8.29
2022-10-29T02:01:29.530Z,8.30
2022-10-29T02:04:34.409Z,8.29
2022-10-29T02:07:43.405Z,8.30
2022-10-29T02:11:03.412Z,8.29
2022-10-29T02:14:18.409Z,8.21
2022-10-29T02:17:06.408Z,8.20
2022-10-29T02:19:48.397Z,8.19
2022-10-29T02:22:42.424Z,8.20
2022-10-29T02:25:29.521Z,8.21
2022-10-29T02:28:02.493Z,8.24
2022-10-29T02:30:49.420Z,8.25
2022-10-29T02:33:22.470Z,8.27
2022-10-29T02:36:09.430Z,8.25
2022-10-29T02:38:42.570Z,8.24
2022-10-29T02:41:29.425Z,8.22
2022-10-29T02:44:02.482Z,8.23
2022-10-29T02:46:49.419Z,8.20
2022-10-29T02:49:22.511Z,8.20
2022-10-29T02:52:09.421Z,8.19
2022-10-29T02:54:42.983Z,8.18
2022-10-29T02:57:29.423Z,8.18
2022-10-29T03:00:02.496Z,8.15
2022-10-29T03:02:49.493Z,8.14
2022-10-29T03:05:22.494Z,8.12
2022-10-29T03:08:09.450Z,8.10
2022-10-29T03:10:42.501Z,8.10
2022-10-29T03:13:29.490Z,8.07
2022-10-29T03:16:09.441Z,8.04
2022-10-29T03:18:56.420Z,8.02
2022-10-29T03:21:36.468Z,8.02
2022-10-29T03:24:30.448Z,8.04
2022-10-29T03:27:24.444Z,8.04
2022-10-29T03:30:18.421Z,8.03
2022-10-29T03:33:05.433Z,8.02
2022-10-29T03:35:38.558Z,8.02
2022-10-29T03:38:25.440Z,8.00
2022-10-29T03:40:58.521Z,8.01
2022-10-29T03:43:45.503Z,8.02
2022-10-29T03:46:18.504Z,8.02
2022-10-29T03:49:05.447Z,8.02
2022-10-29T03:51:40.791Z,8.03
2022-10-29T03:54:34.462Z,8.02
2022-10-29T03:57:28.430Z,8.00
2022-10-29T04:00:16.469Z,8.00
2022-10-29T04:02:49.549Z,7.96
2022-10-29T04:05:36.426Z,7.93
2022-10-29T04:08:09.531Z,7.95
2022-10-29T04:10:57.448Z,7.97
2022-10-29T04:13:30.542Z,7.96
2022-10-29T04:16:17.455Z,7.95
2022-10-29T04:18:52.519Z,7.91
2022-10-29T04:30:32.448Z,7.92
2022-10-29T04:33:13.476Z,7.93
2022-10-29T04:36:08.449Z,7.92
2022-10-29T04:38:56.482Z,7.92
2022-10-29T04:41:29.536Z,7.93
2022-10-29T04:44:16.470Z,7.94
2022-10-29T04:46:49.560Z,7.94
2022-10-29T04:49:36.463Z,7.94
2022-10-29T04:52:17.486Z,7.92
2022-10-29T04:55:11.476Z,7.93
2022-10-29T04:57:58.699Z,7.96
2022-10-29T05:00:32.555Z,7.96
2022-10-29T05:03:20.471Z,7.95
2022-10-29T05:06:00.495Z,7.93
2022-10-29T05:08:47.478Z,7.95
2022-10-29T05:11:27.491Z,7.95
2022-10-29T05:14:21.487Z,7.95
2022-10-29T05:17:15.459Z,7.98
2022-10-29T05:20:02.489Z,7.96
2022-10-29T05:22:42.476Z,7.99
2022-10-29T05:25:29.487Z,7.97
2022-10-29T05:28:15.488Z,7.98
2022-10-29T05:31:09.499Z,7.99
2022-10-29T05:33:57.492Z,7.97
2022-10-29T05:36:30.570Z,7.97
2022-10-29T05:39:17.491Z,7.94
2022-10-29T05:41:52.502Z,7.95
2022-10-29T05:44:39.507Z,7.95
2022-10-29T05:47:13.564Z,7.96
2022-10-29T05:50:00.489Z,7.97
2022-10-29T05:52:33.684Z,7.97
2022-10-29T05:55:20.486Z,7.99
2022-10-29T05:57:53.575Z,8.01
2022-10-29T06:00:43.507Z,8.03
2022-10-29T06:03:24.592Z,8.05
2022-10-29T06:06:11.571Z,8.05
2022-10-29T06:08:44.557Z,8.07
2022-10-29T06:11:31.500Z,8.07
2022-10-29T06:14:04.562Z,8.08
2022-10-29T06:16:51.479Z,8.10
2022-10-29T06:19:24.587Z,8.11
2022-10-29T06:22:11.513Z,8.13
2022-10-29T06:24:51.518Z,8.15
2022-10-29T06:27:45.492Z,8.17
2022-10-29T06:30:39.559Z,8.19
2022-10-29T06:33:26.527Z,8.20
2022-10-29T06:36:00.391Z,8.21
2022-10-29T06:38:47.508Z,8.22
2022-10-29T06:41:25.177Z,8.25
2022-10-29T06:44:11.518Z,8.27
2022-10-29T06:46:44.645Z,8.27
2022-10-29T06:49:34.541Z,8.27
2022-10-29T06:52:07.602Z,8.31
2022-10-29T06:55:01.497Z,8.35
2022-10-29T06:57:48.537Z,8.41
2022-10-29T07:00:21.588Z,8.43
2022-10-29T07:03:09.535Z,8.45
2022-10-29T07:05:42.616Z,8.51
2022-10-29T07:08:29.518Z,8.55
2022-10-29T07:11:04.511Z,8.58
2022-10-29T07:13:51.519Z,8.60
2022-10-29T07:16:24.631Z,8.64
2022-10-29T07:19:11.528Z,8.67
2022-10-29T07:21:47.612Z,8.72
2022-10-29T07:24:34.544Z,8.75
2022-10-29T07:27:07.668Z,8.81
2022-10-29T07:29:54.534Z,8.81
2022-10-29T07:32:29.602Z,8.78
2022-10-29T07:35:16.537Z,8.81
2022-10-29T07:37:56.783Z,8.86
2022-10-29T07:40:50.537Z,8.90
2022-10-29T07:43:44.537Z,8.93
2022-10-29T07:46:38.537Z,8.95
2022-10-29T07:49:25.556Z,8.98
2022-10-29T07:51:58.606Z,8.99
2022-10-29T07:54:52.550Z,9.03
2022-10-29T07:57:46.535Z,9.03
2022-10-29T08:00:34.537Z,9.07
2022-10-29T08:03:07.685Z,9.09
2022-10-29T08:05:56.895Z,9.13
2022-10-29T08:08:31.198Z,9.14
2022-10-29T08:11:19.543Z,9.16
2022-10-29T08:13:54.636Z,9.18
2022-10-29T08:16:41.545Z,9.20
2022-10-29T08:19:15.621Z,9.23
2022-10-29T08:22:03.564Z,9.23
2022-10-29T08:24:40.758Z,9.24
2022-10-29T08:27:27.577Z,9.24
2022-10-29T08:30:10.565Z,9.26
2022-10-29T08:32:57.901Z,9.27
2022-10-29T08:35:38.559Z,9.28
2022-10-29T08:38:32.557Z,9.32
2022-10-29T08:41:40.576Z,9.38
2022-10-29T08:44:34.564Z,9.43
2022-10-29T08:47:31.588Z,9.51
2022-10-29T08:50:47.573Z,9.58
2022-10-29T08:53:33.915Z,9.68
2022-10-29T08:56:29.572Z,9.74
2022-10-29T08:59:18.595Z,9.82
2022-10-29T09:02:05.630Z,9.88
2022-10-29T09:04:44.637Z,9.92
2022-10-29T09:08:02.084Z,9.93
2022-10-29T09:10:50.655Z,9.95
2022-10-29T09:13:43.591Z,9.93
2022-10-29T09:16:20.118Z,9.91
2022-10-29T09:19:26.594Z,9.87
2022-10-29T09:22:08.665Z,9.86
2022-10-29T09:25:17.607Z,9.87
2022-10-29T09:28:14.717Z,9.90
2022-10-29T09:31:17.579Z,9.96
2022-10-29T09:33:57.769Z,10.00
2022-10-29T09:36:47.598Z,10.03
2022-10-29T09:39:34.108Z,10.09
2022-10-29T09:42:40.603Z,10.13
2022-10-29T09:45:19.688Z,10.18
2022-10-29T09:48:28.606Z,10.26
2022-10-29T09:51:24.605Z,10.31
2022-10-29T09:54:11.591Z,10.36
2022-10-29T09:57:05.591Z,10.44
2022-10-29T10:00:09.606Z,10.51
2022-10-29T10:03:12.778Z,10.58
2022-10-29T10:06:14.601Z,10.61
2022-10-29T10:09:12.705Z,10.67
2022-10-29T10:12:00.634Z,10.70
2022-10-29T10:14:33.689Z,10.71
2022-10-29T10:17:20.600Z,10.75
2022-10-29T10:20:00.622Z,10.74
2022-10-29T10:23:00.600Z,10.78
2022-10-29T10:25:47.638Z,10.79
2022-10-29T10:28:29.688Z,10.84
2022-10-29T10:31:21.634Z,10.87
2022-10-29T10:34:06.660Z,10.89
2022-10-29T10:37:16.631Z,10.89
2022-10-29T10:40:09.631Z,10.92
2022-10-29T10:42:51.692Z,10.96
2022-10-29T10:45:46.619Z,10.99
2022-10-29T10:48:21.803Z,11.03
2022-10-29T10:51:27.036Z,11.13
2022-10-29T10:54:00.822Z,11.20
2022-10-29T10:57:05.636Z,11.27
2022-10-29T11:00:20.646Z,11.36
2022-10-29T11:03:34.649Z,11.41
2022-10-29T11:06:19.783Z,11.44
2022-10-29T11:09:15.624Z,11.47
2022-10-29T11:12:11.708Z,11.50
2022-10-29T11:15:14.627Z,11.55
2022-10-29T11:17:59.082Z,11.60
2022-10-29T11:20:51.630Z,11.71
2022-10-29T11:23:44.639Z,11.77
2022-10-29T11:26:45.697Z,11.84
2022-10-29T11:29:54.671Z,11.93
2022-10-29T11:32:39.988Z,11.97
2022-10-29T11:35:37.698Z,11.96
2022-10-29T11:38:29.697Z,11.97
2022-10-29T11:41:28.648Z,11.95
2022-10-29T11:44:31.692Z,11.87
2022-10-29T11:47:28.635Z,11.84
2022-10-29T11:50:32.653Z,11.81
2022-10-29T11:53:32.771Z,11.81
2022-10-29T11:56:42.655Z,11.82
2022-10-29T11:59:53.700Z,11.81
2022-10-29T12:03:22.699Z,11.81
2022-10-29T12:06:22.667Z,11.80
2022-10-29T12:09:44.659Z,11.82
2022-10-29T12:12:41.692Z,11.83
2022-10-29T12:15:50.715Z,11.92
2022-10-29T12:18:56.719Z,11.98
2022-10-29T12:22:17.633Z,12.00
2022-10-29T12:25:16.724Z,12.05
2022-10-29T12:28:08.678Z,12.08
2022-10-29T12:31:31.698Z,12.14
2022-10-29T12:34:30.719Z,12.15
2022-10-29T12:37:29.695Z,12.16
2022-10-29T12:40:38.710Z,12.16
2022-10-29T12:43:38.721Z,12.11
2022-10-29T12:46:30.778Z,12.08
2022-10-29T12:49:29.698Z,12.05
2022-10-29T12:52:18.721Z,12.03
2022-10-29T12:55:13.696Z,11.97
2022-10-29T12:58:00.711Z,11.95
2022-10-29T13:00:50.876Z,11.91
2022-10-29T13:03:59.696Z,11.91
2022-10-29T13:06:53.395Z,11.88
2022-10-29T13:09:48.182Z,11.88
2022-10-29T13:12:59.832Z,11.85
2022-10-29T13:15:50.732Z,11.83
2022-10-29T13:18:42.723Z,11.83
2022-10-29T13:22:08.726Z,11.79
2022-10-29T13:25:33.704Z,11.76
2022-10-29T13:28:07.836Z,11.71
2022-10-29T13:30:55.697Z,11.68
2022-10-29T13:33:34.810Z,11.68
2022-10-29T13:36:25.696Z,11.65
2022-10-29T13:39:07.334Z,11.62
2022-10-29T13:42:01.727Z,11.60
2022-10-29T13:44:35.792Z,11.60
2022-10-29T13:47:27.721Z,11.56
2022-10-29T13:50:00.809Z,11.54
2022-10-29T13:52:47.709Z,11.50
2022-10-29T13:55:29.703Z,11.49
2022-10-29T13:58:40.729Z,11.45
2022-10-29T14:01:31.532Z,11.42
2022-10-29T14:04:17.792Z,11.41
2022-10-29T14:07:06.773Z,11.40
2022-10-29T14:10:07.959Z,11.41
2022-10-29T14:13:04.762Z,11.39
2022-10-29T14:16:15.707Z,11.39
2022-10-29T14:18:57.725Z,11.39
2022-10-29T14:21:52.776Z,11.41
2022-10-29T14:24:50.782Z,11.40
2022-10-29T14:27:44.777Z,11.38
2022-10-29T14:30:34.762Z,11.34
2022-10-29T14:33:07.838Z,11.32
2022-10-29T14:35:54.765Z,11.30
2022-10-29T14:38:33.894Z,11.27
2022-10-29T14:41:23.703Z,11.24
2022-10-29T14:44:17.805Z,11.20
2022-10-29T14:47:23.802Z,11.17
2022-10-29T14:50:21.724Z,11.14
2022-10-29T14:53:06.773Z,11.11
2022-10-29T14:55:54.777Z,11.10
2022-10-29T14:58:31.885Z,11.09
2022-10-29T15:01:26.851Z,11.07
2022-10-29T15:04:04.879Z,11.04
2022-10-29T15:06:51.797Z,11.00
2022-10-29T15:09:28.125Z,10.97
2022-10-29T15:12:30.806Z,10.99
2022-10-29T15:15:24.888Z,10.96
2022-10-29T15:18:22.773Z,10.94
2022-10-29T15:20:55.931Z,10.92
2022-10-29T15:23:50.808Z,10.89
2022-10-29T15:26:25.833Z,10.89
2022-10-29T15:29:19.725Z,10.89
2022-10-29T15:32:01.828Z,10.90
2022-10-29T15:35:02.782Z,10.91
2022-10-29T15:37:57.796Z,10.88
2022-10-29T15:40:44.762Z,10.85
2022-10-29T15:43:42.820Z,10.85
2022-10-29T15:46:45.797Z,10.83
2022-10-29T15:49:37.803Z,10.81
2022-10-29T15:52:10.905Z,10.80
2022-10-29T15:55:07.800Z,10.80
2022-10-29T15:58:02.825Z,10.77
2022-10-29T16:00:57.849Z,10.75
2022-10-29T16:03:47.798Z,10.73
2022-10-29T16:06:28.811Z,10.74
2022-10-29T16:09:25.800Z,10.70
2022-10-29T16:12:07.801Z,10.69
2022-10-29T16:15:01.797Z,10.71
2022-10-29T16:17:48.873Z,10.70
2022-10-29T16:20:24.882Z,10.73
2022-10-29T16:23:13.799Z,10.71
2022-10-29T16:25:47.879Z,10.70
2022-10-29T16:28:34.838Z,10.72
2022-10-29T16:31:07.890Z,10.70
2022-10-29T16:33:55.804Z,10.72
2022-10-29T16:36:36.817Z,10.72
2022-10-29T16:39:30.839Z,10.72
2022-10-29T16:42:38.937Z,10.69
2022-10-29T16:45:13.882Z,10.65
2022-10-29T16:48:01.149Z,10.62
2022-10-29T16:50:36.940Z,10.61
2022-10-29T16:53:25.839Z,10.59
2022-10-29T16:55:58.914Z,10.55
2022-10-29T16:58:46.823Z,10.51
2022-10-29T17:04:15.868Z,10.48
2022-10-29T17:06:48.900Z,10.48
2022-10-29T17:09:36.876Z,10.47
2022-10-29T17:12:16.830Z,10.47
2022-10-29T17:15:04.842Z,10.44
2022-10-29T17:17:46.430Z,10.42
2022-10-29T17:20:40.836Z,10.38
2022-10-29T17:23:27.848Z,10.40
2022-10-29T17:26:01.886Z,10.42
2022-10-29T17:28:48.843Z,10.43
2022-10-29T17:31:28.864Z,10.44
2022-10-29T17:34:22.836Z,10.45
2022-10-29T17:37:09.844Z,10.47
2022-10-29T17:39:42.955Z,10.45
2022-10-29T17:42:29.845Z,10.47
2022-10-29T17:45:02.943Z,10.47
2022-10-29T17:47:51.992Z,10.46
2022-10-29T17:50:24.936Z,10.40
2022-10-29T17:53:14.155Z,10.34
2022-10-29T17:55:46.929Z,10.33
2022-10-29T17:58:34.861Z,10.29
2022-10-29T18:01:13.222Z,10.25
2022-10-29T18:03:59.837Z,10.23
2022-10-29T18:06:32.925Z,10.23
2022-10-29T18:09:21.403Z,10.20
2022-10-29T18:11:55.886Z,10.18
2022-10-29T18:14:42.829Z,10.13
2022-10-29T18:17:15.901Z,10.12
2022-10-29T18:20:02.848Z,10.13
2022-10-29T18:22:35.921Z,10.13
2022-10-29T18:25:22.940Z,10.11
2022-10-29T18:27:59.736Z,10.13
2022-10-29T18:30:46.838Z,10.12
2022-10-29T18:33:19.914Z,10.12
2022-10-29T18:36:06.843Z,10.11
2022-10-29T18:38:46.856Z,10.11
2022-10-29T18:41:40.855Z,10.11
2022-10-29T18:44:34.835Z,10.09
2022-10-29T18:47:21.902Z,10.06
2022-10-29T18:49:54.905Z,10.06
2022-10-29T18:52:41.920Z,10.06
2022-10-29T18:55:14.954Z,10.04
2022-10-29T18:58:01.891Z,10.01
2022-10-29T19:00:34.943Z,10.01
2022-10-29T19:03:22.888Z,10.01
2022-10-29T19:05:55.930Z,10.00
2022-10-29T19:08:44.864Z,9.99
2022-10-29T19:11:27.899Z,9.99
2022-10-29T19:14:25.890Z,9.99
2022-10-29T19:17:20.880Z,9.98
2022-10-29T19:20:07.891Z,9.98
2022-10-29T19:22:40.919Z,9.97
2022-10-29T19:25:27.892Z,9.96
2022-10-29T19:28:01.005Z,9.95
2022-10-29T19:30:47.902Z,9.95
2022-10-29T19:33:20.944Z,9.94
2022-10-29T19:36:07.892Z,9.91
2022-10-29T19:38:42.008Z,9.91
2022-10-29T19:41:28.890Z,9.92
2022-10-29T19:44:06.596Z,9.91
2022-10-29T19:46:52.887Z,9.89
2022-10-29T19:49:27.385Z,9.89
2022-10-29T19:52:13.968Z,9.88
2022-10-29T19:54:46.944Z,9.87
2022-10-29T19:57:33.892Z,9.87
2022-10-29T20:00:16.757Z,9.88
2022-10-29T20:03:14.176Z,9.87
2022-10-29T20:06:01.913Z,9.87
2022-10-29T20:08:34.958Z,9.88
2022-10-29T20:11:21.935Z,9.89
2022-10-29T20:13:54.969Z,9.89
2022-10-29T20:16:41.966Z,9.89
2022-10-29T20:19:23.887Z,9.88
2022-10-29T20:22:17.887Z,9.87
2022-10-29T20:25:04.925Z,9.86
2022-10-29T20:27:37.955Z,9.86
2022-10-29T20:30:24.930Z,9.84
2022-10-29T20:32:58.288Z,9.85
2022-10-29T20:35:44.921Z,9.85
2022-10-29T20:38:24.905Z,9.86
2022-10-29T20:41:13.948Z,9.86
2022-10-29T20:43:53.908Z,9.86
2022-10-29T20:46:47.907Z,9.86
2022-10-29T20:49:34.912Z,9.85
2022-10-29T20:52:08.153Z,9.85
2022-10-29T20:54:54.905Z,9.86
2022-10-29T20:57:28.009Z,9.84
2022-10-29T21:00:15.889Z,9.85
2022-10-29T21:02:49.084Z,9.85
2022-10-29T21:05:35.908Z,9.84
2022-10-29T21:08:08.977Z,9.82
2022-10-29T21:10:55.928Z,9.80
2022-10-29T21:13:29.027Z,9.79
2022-10-29T21:16:22.943Z,9.79
2022-10-29T21:18:58.975Z,9.80
2022-10-29T21:21:46.933Z,9.78
2022-10-29T21:24:20.327Z,9.78
2022-10-29T21:27:06.914Z,9.77
2022-10-29T21:29:40.065Z,9.77
2022-10-29T21:32:26.915Z,9.78
2022-10-29T21:35:00.003Z,9.80
2022-10-29T21:37:46.928Z,9.80
2022-10-29T21:40:19.987Z,9.79
2022-10-29T21:43:06.937Z,9.80
2022-10-29T21:45:40.002Z,9.81
2022-10-29T21:48:26.935Z,9.80
2022-10-29T21:51:17.188Z,9.80
2022-10-29T21:54:03.953Z,9.82
2022-10-29T21:56:37.048Z,9.85
2022-10-29T21:59:24.938Z,9.86
2022-10-29T22:02:06.032Z,9.87
2022-10-29T22:04:52.931Z,9.87
2022-10-29T22:07:32.943Z,9.87
2022-10-29T22:10:26.938Z,9.88
2022-10-29T22:13:14.584Z,9.90
2022-10-29T22:15:57.943Z,9.90
2022-10-29T22:18:45.937Z,9.91
2022-10-29T22:21:28.963Z,9.90
2022-10-29T22:24:22.963Z,9.89
2022-10-29T22:27:10.970Z,9.85
2022-10-29T22:29:44.011Z,9.85
2022-10-29T22:32:30.945Z,9.79
2022-10-29T22:35:04.028Z,9.76
2022-10-29T22:37:50.993Z,9.72
2022-10-29T22:40:24.032Z,9.71
2022-10-29T22:43:10.963Z,9.72
2022-10-29T22:45:52.958Z,9.72
2022-10-29T22:48:46.956Z,9.71
2022-10-29T22:51:35.956Z,9.71
2022-10-29T22:54:15.977Z,9.71
2022-10-29T22:57:09.945Z,9.71
2022-10-29T22:59:56.975Z,9.72
2022-10-29T23:02:30.200Z,9.71
2022-10-29T23:05:16.952Z,9.71
2022-10-29T23:07:50.119Z,9.71
2022-10-29T23:10:36.965Z,9.71
2022-10-29T23:13:10.043Z,9.68
2022-10-29T23:15:57.971Z,9.67
2022-10-29T23:18:31.060Z,9.66
2022-10-29T23:21:17.993Z,9.67
2022-10-29T23:23:52.062Z,9.65
2022-10-29T23:26:38.970Z,9.65
2022-10-29T23:29:18.980Z,9.65
2022-10-29T23:32:05.988Z,9.63
2022-10-29T23:34:45.976Z,9.62
2022-10-29T23:37:39.963Z,9.63
2022-10-29T23:40:34.007Z,9.64
2022-10-29T23:43:20.988Z,9.67
2022-10-29T23:46:00.989Z,9.68
2022-10-29T23:48:47.996Z,9.66
2022-10-29T23:51:28.067Z,9.67
2022-10-29T23:54:15.004Z,9.69
2022-10-29T23:56:48.039Z,9.71
2022-10-29T23:59:34.991Z,9.71
